Time;durP1;ratioP1;P1;durP2;ratioP2;P2;SDS_P1;SDS_P2;PMS_P1;PMS_P2;Temp;Humidity;BMP_temperature;BMP_pressure;BME280_temperature;BME280_humidity;BME280_pressure;Samples;Min_cycle;Max_cycle;Signal;HPM_P1;HPM_P2
2023/08/10 00:00:12;;;;;;;3.30;1.03;;;14.60;99.90;;;;;;5095714;28;20458;-46
2023/08/10 00:02:40;;;;;;;3.42;1.00;;;14.60;99.90;;;;;;5095224;28;20044;-47
2023/08/10 00:05:06;;;;;;;3.60;1.08;;;14.60;99.90;;;;;;5095344;28;20097;-46
2023/08/10 00:07:34;;;;;;;2.60;0.90;;;14.60;99.90;;;;;;5095208;28;20048;-47
2023/08/10 00:10:01;;;;;;;3.30;1.20;;;14.60;99.90;;;;;;5094928;28;20533;-46
2023/08/10 00:12:27;;;;;;;2.38;0.90;;;14.60;99.90;;;;;;5094995;28;20048;-46
2023/08/10 00:14:52;;;;;;;4.32;0.98;;;14.60;99.90;;;;;;5093751;28;20040;-46
2023/08/10 00:17:18;;;;;;;2.13;0.90;;;14.60;99.90;;;;;;5094671;28;20096;-47
2023/08/10 00:19:44;;;;;;;2.93;1.10;;;14.50;99.90;;;;;;5094925;28;20365;-46
2023/08/10 00:22:10;;;;;;;3.60;1.10;;;14.50;99.90;;;;;;5094598;28;20278;-46
2023/08/10 00:24:37;;;;;;;2.33;0.90;;;14.50;99.90;;;;;;5094492;28;20051;-47
2023/08/10 00:27:03;;;;;;;4.57;1.30;;;14.40;99.90;;;;;;5094715;28;20055;-46
2023/08/10 00:29:29;;;;;;;1.95;0.70;;;14.40;99.90;;;;;;5092861;28;20134;-47
2023/08/10 00:31:55;;;;;;;2.33;0.80;;;14.40;99.90;;;;;;5094562;28;20140;-46
2023/08/10 00:34:21;;;;;;;4.63;1.00;;;14.40;99.90;;;;;;5094479;28;20282;-46
2023/08/10 00:36:46;;;;;;;2.58;0.88;;;14.50;99.90;;;;;;5094648;28;20745;-46
2023/08/10 00:39:12;;;;;;;2.20;0.73;;;14.50;99.90;;;;;;5094289;28;20043;-47
2023/08/10 00:41:38;;;;;;;2.50;0.80;;;14.40;99.90;;;;;;5094427;28;20044;-47
2023/08/10 00:44:04;;;;;;;2.53;1.02;;;14.40;99.90;;;;;;5094715;28;20274;-47
2023/08/10 00:46:31;;;;;;;6.40;1.00;;;14.40;99.90;;;;;;5094347;28;20058;-47
2023/08/10 00:48:58;;;;;;;3.03;0.82;;;14.40;99.90;;;;;;5094544;28;20036;-48
2023/08/10 00:51:24;;;;;;;4.57;0.93;;;14.40;99.90;;;;;;5094197;28;20092;-48
2023/08/10 00:53:51;;;;;;;4.72;0.85;;;14.40;99.90;;;;;;5093531;28;20052;-47
2023/08/10 00:56:16;;;;;;;;;;;14.40;99.90;;;;;;5094146;28;20441;-46
2023/08/10 00:58:42;;;;;;;2.58;0.90;;;14.40;99.90;;;;;;5094012;28;19920;-46
2023/08/10 01:01:08;;;;;;;3.90;1.13;;;14.30;99.90;;;;;;5094155;28;20181;-46
2023/08/10 01:03:34;;;;;;;2.97;1.05;;;14.30;99.90;;;;;;5094227;28;20039;-46
2023/08/10 01:06:06;;;;;;;3.60;0.93;;;14.30;99.90;;;;;;5094045;28;20055;-47
2023/08/10 01:09:06;;;;;;;2.42;0.80;;;14.30;99.90;;;;;;5093770;28;20071;-46
2023/08/10 01:11:39;;;;;;;2.78;1.02;;;14.30;99.90;;;;;;5068947;28;20064;-46
2023/08/10 01:14:30;;;;;;;2.50;1.02;;;14.30;99.90;;;;;;5093877;28;20056;-47
2023/08/10 01:16:59;;;;;;;2.45;0.80;;;14.30;99.90;;;;;;5093781;28;20063;-46
2023/08/10 01:19:36;;;;;;;2.55;1.00;;;14.30;99.90;;;;;;5094021;28;20411;-46
2023/08/10 01:22:12;;;;;;;4.72;1.00;;;14.30;99.90;;;;;;5093747;28;20052;-46
2023/08/10 01:24:43;;;;;;;1.65;0.70;;;14.30;99.90;;;;;;5094095;28;20051;-46
2023/08/10 01:27:11;;;;;;;2.42;1.00;;;14.30;99.90;;;;;;5093707;28;20048;-46
2023/08/10 01:29:38;;;;;;;2.72;1.05;;;14.30;99.90;;;;;;5094040;28;20059;-47
2023/08/10 01:32:04;;;;;;;4.32;1.08;;;14.20;99.90;;;;;;5092841;28;20044;-46
2023/08/10 01:34:29;;;;;;;2.03;0.70;;;14.20;99.90;;;;;;5093587;28;20495;-46
2023/08/10 01:36:55;;;;;;;3.00;1.13;;;14.20;99.90;;;;;;5093688;28;20113;-46
2023/08/10 01:39:21;;;;;;;2.53;0.90;;;14.20;99.90;;;;;;5093440;28;20048;-47
2023/08/10 01:41:46;;;;;;;3.53;1.00;;;14.20;99.90;;;;;;5093651;28;20054;-46
2023/08/10 01:44:12;;;;;;;3.80;1.50;;;14.10;99.90;;;;;;5092753;28;20589;-46
2023/08/10 01:46:40;;;;;;;3.90;1.40;;;14.10;99.90;;;;;;5092630;28;20048;-47
2023/08/10 01:49:11;;;;;;;2.40;0.93;;;14.10;99.90;;;;;;5093584;28;20327;-46
2023/08/10 01:51:40;;;;;;;3.30;1.35;;;14.10;99.90;;;;;;5093571;28;20102;-47
2023/08/10 01:54:07;;;;;;;3.17;0.90;;;14.20;99.90;;;;;;5093548;28;20105;-46
2023/08/10 01:56:33;;;;;;;3.80;1.15;;;14.20;99.90;;;;;;5093416;28;20540;-46
2023/08/10 01:59:00;;;;;;;3.70;1.20;;;14.20;99.90;;;;;;5092444;28;20044;-46
2023/08/10 02:01:25;;;;;;;4.45;1.05;;;14.20;99.90;;;;;;5093608;28;20121;-48
2023/08/10 02:03:51;;;;;;;5.90;1.00;;;14.20;99.90;;;;;;5093855;28;20390;-46
2023/08/10 02:06:17;;;;;;;4.10;1.42;;;14.20;99.90;;;;;;5095445;28;20048;-46
2023/08/10 02:08:43;;;;;;;5.20;1.20;;;14.20;99.90;;;;;;5096236;28;20059;-47
2023/08/10 02:11:08;;;;;;;3.40;1.30;;;14.20;99.90;;;;;;5097199;28;20046;-47
2023/08/10 02:13:34;;;;;;;2.80;1.07;;;14.20;99.90;;;;;;5096272;28;20286;-47
2023/08/10 02:16:00;;;;;;;2.05;0.90;;;14.20;99.90;;;;;;5097131;28;20109;-47
2023/08/10 02:18:25;;;;;;;5.93;1.30;;;14.20;99.90;;;;;;5096109;28;20044;-46
2023/08/10 02:20:51;;;;;;;2.53;0.90;;;14.20;99.90;;;;;;5096383;28;20073;-46
2023/08/10 02:23:17;;;;;;;3.13;1.00;;;14.20;99.90;;;;;;5096864;28;20335;-47
2023/08/10 02:25:43;;;;;;;3.53;1.00;;;14.20;99.90;;;;;;5097049;28;20084;-46
2023/08/10 02:28:08;;;;;;;2.42;1.00;;;14.30;99.90;;;;;;5096928;28;20036;-46
2023/08/10 02:30:34;;;;;;;2.40;0.83;;;14.30;99.90;;;;;;5097033;28;20056;-46
2023/08/10 02:33:00;;;;;;;3.03;1.00;;;14.30;99.90;;;;;;5096782;28;20320;-46
2023/08/10 02:35:25;;;;;;;3.47;1.03;;;14.30;99.90;;;;;;5095752;28;20059;-47
2023/08/10 02:37:51;;;;;;;3.20;1.10;;;14.30;99.90;;;;;;5078738;28;20040;-48
2023/08/10 02:40:17;;;;;;;2.07;1.00;;;14.40;99.90;;;;;;5096713;28;20282;-46
2023/08/10 02:42:42;;;;;;;3.25;1.23;;;14.30;99.90;;;;;;5097301;28;20048;-45
2023/08/10 02:45:09;;;;;;;4.10;1.10;;;14.30;99.90;;;;;;5096672;28;20402;-46
2023/08/10 02:47:35;;;;;;;;;;;14.30;99.90;;;;;;5097051;28;20471;-46
2023/08/10 02:50:01;;;;;;;4.35;0.98;;;14.30;99.90;;;;;;5096559;28;19919;-47
2023/08/10 02:52:27;;;;;;;4.43;1.00;;;14.30;99.90;;;;;;5096403;28;20127;-46
2023/08/10 02:54:53;;;;;;;3.17;1.00;;;14.40;99.90;;;;;;5096279;28;20169;-46
2023/08/10 02:57:18;;;;;;;3.90;0.93;;;14.40;99.90;;;;;;5096508;28;20047;-46
2023/08/10 02:59:44;;;;;;;4.87;1.07;;;14.40;99.90;;;;;;5095189;28;20044;-48
2023/08/10 03:02:09;;;;;;;2.37;0.97;;;14.40;99.90;;;;;;5096266;28;20282;-46
2023/08/10 03:04:35;;;;;;;2.97;0.90;;;14.40;99.90;;;;;;5095030;28;20329;-48
2023/08/10 03:07:01;;;;;;;3.67;1.00;;;14.40;99.90;;;;;;5095193;28;20512;-46
2023/08/10 03:09:27;;;;;;;3.28;1.23;;;14.40;99.90;;;;;;5095968;28;20289;-46
2023/08/10 03:11:53;;;;;;;2.53;1.05;;;14.40;99.90;;;;;;5095242;28;20067;-47
2023/08/10 03:14:19;;;;;;;2.30;1.00;;;14.40;99.90;;;;;;5096185;28;20043;-46
2023/08/10 03:16:44;;;;;;;4.60;1.30;;;14.30;99.90;;;;;;5095611;28;20075;-46
2023/08/10 03:19:10;;;;;;;2.50;1.03;;;14.30;99.90;;;;;;5095453;28;20347;-46
2023/08/10 03:21:36;;;;;;;2.27;1.20;;;14.30;99.90;;;;;;5095954;28;20047;-46
2023/08/10 03:24:02;;;;;;;3.30;1.10;;;14.40;99.90;;;;;;5095869;28;20044;-46
2023/08/10 03:26:27;;;;;;;2.17;1.05;;;14.40;99.90;;;;;;5095992;28;20070;-46
2023/08/10 03:28:53;;;;;;;2.35;0.98;;;14.40;99.90;;;;;;5095521;28;20040;-46
2023/08/10 03:31:23;;;;;;;1.90;0.70;;;14.40;99.90;;;;;;5096030;28;20052;-47
2023/08/10 03:33:49;;;;;;;2.15;0.90;;;14.40;99.90;;;;;;5095878;28;20051;-46
2023/08/10 03:36:15;;;;;;;2.92;1.00;;;14.40;99.90;;;;;;5095753;28;20498;-47
2023/08/10 03:38:41;;;;;;;4.88;0.90;;;14.40;99.90;;;;;;5095410;28;20083;-47
2023/08/10 03:41:06;;;;;;;1.75;0.68;;;14.40;99.90;;;;;;5095861;28;20079;-46
2023/08/10 03:43:32;;;;;;;2.55;0.60;;;14.40;99.90;;;;;;5095554;28;20066;-47
2023/08/10 03:45:58;;;;;;;2.07;0.63;;;14.40;99.90;;;;;;5095512;28;20130;-46
2023/08/10 03:48:23;;;;;;;2.10;1.00;;;14.40;99.90;;;;;;5095326;28;20270;-46
2023/08/10 03:50:49;;;;;;;3.13;0.80;;;14.40;99.90;;;;;;5095274;28;20047;-47
2023/08/10 03:53:15;;;;;;;4.65;1.13;;;14.40;99.90;;;;;;5077573;28;20048;-46
2023/08/10 03:55:41;;;;;;;2.10;0.68;;;14.40;99.90;;;;;;5095073;28;20051;-46
2023/08/10 03:58:06;;;;;;;2.73;0.70;;;14.40;99.90;;;;;;5095208;28;20040;-46
2023/08/10 04:00:32;;;;;;;3.30;0.80;;;14.40;99.90;;;;;;5095180;28;20403;-46
2023/08/10 04:02:58;;;;;;;3.15;0.80;;;14.40;99.90;;;;;;5095036;28;20482;-46
2023/08/10 04:05:23;;;;;;;4.57;0.97;;;14.50;99.90;;;;;;5094982;28;20132;-46
2023/08/10 04:07:49;;;;;;;3.67;0.87;;;14.40;99.90;;;;;;5094965;28;20094;-46
2023/08/10 04:10:15;;;;;;;2.13;0.80;;;14.40;99.90;;;;;;5093904;28;20394;-46
2023/08/10 04:12:40;;;;;;;3.50;0.90;;;14.50;99.90;;;;;;5094983;28;20384;-46
2023/08/10 04:15:07;;;;;;;3.07;1.00;;;14.40;99.90;;;;;;5095205;28;20046;-46
2023/08/10 04:17:33;;;;;;;2.15;0.70;;;14.40;99.90;;;;;;5094917;28;20282;-46
2023/08/10 04:19:58;;;;;;;1.80;0.75;;;14.50;99.90;;;;;;5094794;28;20552;-46
2023/08/10 04:22:24;;;;;;;1.63;0.60;;;14.50;99.90;;;;;;5094546;28;20070;-47
2023/08/10 04:24:51;;;;;;;3.10;0.80;;;14.50;99.90;;;;;;5094776;28;20387;-46
2023/08/10 04:27:20;;;;;;;2.35;0.70;;;14.50;99.90;;;;;;5093596;28;20101;-47
2023/08/10 04:29:46;;;;;;;1.77;0.68;;;14.50;99.90;;;;;;5094549;28;20055;-46
2023/08/10 04:32:15;;;;;;;3.22;1.02;;;14.50;99.90;;;;;;5094616;28;20044;-46
2023/08/10 04:34:41;;;;;;;2.10;0.60;;;14.50;99.90;;;;;;5094533;28;20044;-46
2023/08/10 04:37:06;;;;;;;3.30;0.70;;;14.40;99.90;;;;;;5094491;28;20086;-47
2023/08/10 04:39:32;;;;;;;1.50;0.70;;;14.40;99.90;;;;;;5094483;28;20407;-47
2023/08/10 04:41:59;;;;;;;2.47;0.90;;;14.40;99.90;;;;;;5093337;28;20425;-47
2023/08/10 04:44:24;;;;;;;;;;;14.40;99.90;;;;;;5094833;28;20048;-46
2023/08/10 04:46:50;;;;;;;2.58;0.70;;;14.40;99.90;;;;;;5094381;28;19927;-48
2023/08/10 04:49:16;;;;;;;2.03;0.80;;;14.40;99.90;;;;;;5094358;28;20048;-46
2023/08/10 04:51:42;;;;;;;2.17;0.70;;;14.40;99.90;;;;;;5093118;28;20097;-46
2023/08/10 04:54:11;;;;;;;3.67;1.05;;;14.40;99.90;;;;;;5094306;28;20043;-46
2023/08/10 04:56:36;;;;;;;3.97;1.27;;;14.40;99.90;;;;;;5094233;28;20040;-47
2023/08/10 04:59:03;;;;;;;2.35;0.80;;;14.40;99.90;;;;;;5094143;28;20380;-47
2023/08/10 05:01:29;;;;;;;2.67;0.80;;;14.40;99.90;;;;;;5094094;28;20059;-46
2023/08/10 05:03:55;;;;;;;2.78;1.15;;;14.50;99.90;;;;;;5094150;28;20051;-47
2023/08/10 05:06:21;;;;;;;2.90;1.20;;;14.50;99.90;;;;;;5094077;28;20052;-46
2023/08/10 05:08:47;;;;;;;2.83;0.98;;;14.50;99.90;;;;;;5094056;28;20364;-46
2023/08/10 05:11:13;;;;;;;3.25;0.80;;;14.50;99.90;;;;;;5094368;28;20048;-46
2023/08/10 05:13:39;;;;;;;1.52;0.73;;;14.50;99.90;;;;;;5094030;28;20048;-46
2023/08/10 05:16:05;;;;;;;2.70;0.73;;;14.50;99.90;;;;;;5092582;28;20083;-48
2023/08/10 05:18:30;;;;;;;2.40;0.93;;;14.50;99.90;;;;;;5093903;28;20356;-46
2023/08/10 05:21:00;;;;;;;4.33;1.10;;;14.60;99.90;;;;;;5093724;28;20357;-46
2023/08/10 05:23:26;;;;;;;2.80;0.90;;;14.60;99.90;;;;;;5093876;28;20048;-46
2023/08/10 05:25:52;;;;;;;2.38;1.00;;;14.60;99.90;;;;;;5092564;28;20483;-46
2023/08/10 05:28:17;;;;;;;2.50;1.03;;;14.60;99.90;;;;;;5093812;28;20054;-46
2023/08/10 05:30:43;;;;;;;5.57;0.90;;;14.60;99.90;;;;;;5093668;28;20098;-46
2023/08/10 05:33:09;;;;;;;3.45;1.10;;;14.70;99.90;;;;;;5093717;28;20286;-46
2023/08/10 05:35:35;;;;;;;3.35;0.80;;;14.70;99.90;;;;;;5094174;28;20043;-47
2023/08/10 05:38:00;;;;;;;2.78;1.00;;;14.70;99.90;;;;;;5093815;28;20040;-46
2023/08/10 05:40:26;;;;;;;3.92;0.95;;;14.70;99.90;;;;;;5094496;28;20036;-46
2023/08/10 05:42:52;;;;;;;6.38;1.05;;;14.70;99.90;;;;;;5097063;28;20127;-46
2023/08/10 05:45:19;;;;;;;2.30;0.70;;;14.80;99.90;;;;;;5097883;28;20044;-46
2023/08/10 05:47:45;;;;;;;2.58;0.93;;;14.80;99.90;;;;;;5097658;28;20286;-46
2023/08/10 05:50:12;;;;;;;5.55;1.20;;;14.80;99.90;;;;;;5097774;28;20487;-46
2023/08/10 05:52:38;;;;;;;5.40;1.10;;;14.80;99.90;;;;;;5096689;28;20056;-46
2023/08/10 05:55:04;;;;;;;4.00;1.23;;;14.90;99.90;;;;;;5096647;28;20055;-46
2023/08/10 05:57:30;;;;;;;3.13;0.70;;;14.90;99.90;;;;;;5097589;28;20125;-46
2023/08/10 05:59:56;;;;;;;5.00;1.17;;;14.90;99.90;;;;;;5097419;28;20080;-46
2023/08/10 06:02:22;;;;;;;3.08;1.00;;;14.90;99.90;;;;;;5097501;28;20097;-46
2023/08/10 06:04:49;;;;;;;2.33;0.95;;;15.00;99.90;;;;;;5097585;28;20058;-46
2023/08/10 06:07:15;;;;;;;3.90;1.00;;;15.00;99.90;;;;;;5097457;28;20434;-46
2023/08/10 06:09:40;;;;;;;2.90;0.90;;;15.00;99.90;;;;;;5097434;28;20033;-46
2023/08/10 06:12:06;;;;;;;3.15;1.10;;;15.00;99.90;;;;;;5097408;28;20122;-47
2023/08/10 06:14:33;;;;;;;3.80;1.02;;;15.00;99.90;;;;;;5097466;28;20387;-46
2023/08/10 06:16:58;;;;;;;3.80;0.93;;;15.10;99.90;;;;;;5097194;28;20087;-49
2023/08/10 06:19:24;;;;;;;3.75;0.90;;;15.10;99.90;;;;;;5097037;28;20075;-48
2023/08/10 06:21:51;;;;;;;6.43;0.90;;;15.10;99.90;;;;;;5097186;28;20040;-46
2023/08/10 06:24:17;;;;;;;2.22;0.98;;;15.30;99.90;;;;;;5096372;28;20314;-47
2023/08/10 06:26:43;;;;;;;4.00;1.15;;;15.90;99.90;;;;;;5097168;28;20122;-47
2023/08/10 06:29:08;;;;;;;2.15;0.93;;;16.80;99.90;;;;;;5096919;28;20044;-47
2023/08/10 06:31:35;;;;;;;5.20;0.98;;;17.60;99.90;;;;;;5096831;28;20412;-48
2023/08/10 06:34:02;;;;;;;;;;;18.30;99.90;;;;;;5097422;28;20122;-48
2023/08/10 06:36:28;;;;;;;1.98;0.80;;;18.80;99.90;;;;;;5096934;28;19977;-46
2023/08/10 06:38:54;;;;;;;2.38;0.77;;;19.10;99.90;;;;;;5095554;28;20048;-48
2023/08/10 06:41:21;;;;;;;2.60;0.80;;;19.50;99.90;;;;;;5095803;28;20054;-46
2023/08/10 06:43:46;;;;;;;2.63;0.90;;;19.60;99.90;;;;;;5096731;28;20059;-47
2023/08/10 06:46:12;;;;;;;2.65;1.02;;;19.90;99.90;;;;;;5095361;28;20040;-46
2023/08/10 06:48:38;;;;;;;2.80;0.80;;;20.30;99.90;;;;;;5096424;28;20479;-46
2023/08/10 06:51:03;;;;;;;5.15;1.00;;;20.20;99.90;;;;;;5097255;28;20433;-46
2023/08/10 06:53:31;;;;;;;3.70;0.80;;;19.90;99.90;;;;;;5095179;28;20597;-47
2023/08/10 06:55:57;;;;;;;3.70;0.60;;;19.50;99.90;;;;;;5095669;28;20097;-48
2023/08/10 06:58:22;;;;;;;5.82;0.80;;;19.40;99.90;;;;;;5096428;28;20040;-46
2023/08/10 07:00:48;;;;;;;2.28;0.98;;;19.10;99.90;;;;;;5096502;28;20048;-46
2023/08/10 07:03:14;;;;;;;1.88;0.70;;;19.00;99.90;;;;;;5096180;28;20075;-46
2023/08/10 07:05:42;;;;;;;3.90;0.70;;;18.90;99.90;;;;;;5096368;28;20044;-46
2023/08/10 07:08:08;;;;;;;2.60;0.50;;;18.70;99.90;;;;;;5096292;28;20044;-46
2023/08/10 07:10:37;;;;;;;2.83;0.52;;;19.10;99.90;;;;;;5096306;28;20051;-47
2023/08/10 07:13:04;;;;;;;2.22;0.60;;;19.80;99.90;;;;;;5096245;28;20123;-46
2023/08/10 07:15:33;;;;;;;2.65;0.60;;;19.90;99.90;;;;;;5096190;28;20046;-46
2023/08/10 07:17:59;;;;;;;4.03;0.77;;;19.90;99.90;;;;;;5094810;28;20487;-47
2023/08/10 07:20:25;;;;;;;2.50;0.52;;;20.10;99.90;;;;;;5096123;28;20091;-46
2023/08/10 07:22:50;;;;;;;2.33;0.43;;;20.10;99.90;;;;;;5095963;28;20055;-47
2023/08/10 07:25:18;;;;;;;2.13;0.60;;;19.90;99.90;;;;;;5096041;28;20040;-46
2023/08/10 07:27:45;;;;;;;5.28;0.80;;;19.50;99.90;;;;;;5095931;28;20172;-46
2023/08/10 07:30:15;;;;;;;1.55;0.50;;;19.10;99.90;;;;;;5095462;28;20060;-46
2023/08/10 07:32:41;;;;;;;3.00;0.85;;;18.80;99.90;;;;;;5096075;28;20073;-47
2023/08/10 07:35:08;;;;;;;1.00;0.40;;;18.60;99.90;;;;;;5095682;28;20044;-47
2023/08/10 07:37:35;;;;;;;2.63;0.68;;;18.40;99.90;;;;;;5094694;28;20141;-46
2023/08/10 07:40:02;;;;;;;1.58;0.57;;;18.30;99.90;;;;;;5094744;28;20052;-46
2023/08/10 07:42:27;;;;;;;2.38;0.77;;;18.20;99.90;;;;;;5094447;28;20044;-47
2023/08/10 07:44:53;;;;;;;2.50;0.50;;;18.10;99.90;;;;;;5095514;28;20502;-46
2023/08/10 07:47:18;;;;;;;3.08;0.50;;;17.90;99.90;;;;;;5095534;28;20118;-46
2023/08/10 07:49:44;;;;;;;3.38;0.60;;;17.80;99.90;;;;;;5094333;28;20032;-46
2023/08/10 07:52:10;;;;;;;2.38;0.70;;;17.70;99.90;;;;;;5095449;28;20051;-46
2023/08/10 07:54:36;;;;;;;2.60;0.60;;;17.60;99.90;;;;;;5094220;28;20117;-46
2023/08/10 07:57:02;;;;;;;1.55;0.50;;;17.60;99.90;;;;;;5095305;28;20048;-47
2023/08/10 07:59:27;;;;;;;2.45;0.60;;;17.60;99.90;;;;;;5094986;28;20054;-47
2023/08/10 08:01:53;;;;;;;1.80;0.47;;;17.50;99.90;;;;;;5095192;28;20066;-46
2023/08/10 08:04:19;;;;;;;1.67;0.55;;;17.50;99.90;;;;;;5094981;28;20044;-47
2023/08/10 08:06:44;;;;;;;1.73;0.50;;;17.40;99.90;;;;;;5094012;28;20186;-47
2023/08/10 08:09:12;;;;;;;2.88;0.50;;;17.40;99.90;;;;;;5094981;28;20051;-46
2023/08/10 08:11:38;;;;;;;2.67;0.60;;;17.30;99.90;;;;;;5094917;28;20239;-47
2023/08/10 08:14:04;;;;;;;1.55;0.50;;;17.30;99.90;;;;;;5094739;28;20086;-47
2023/08/10 08:16:30;;;;;;;2.15;0.77;;;17.30;99.90;;;;;;5094974;28;20040;-51
2023/08/10 08:18:56;;;;;;;3.00;0.50;;;17.30;99.90;;;;;;5095224;28;20471;-47
2023/08/10 08:21:29;;;;;;;2.25;0.60;;;17.40;99.90;;;;;;5076966;28;20044;-47
2023/08/10 08:23:55;;;;;;;2.40;0.50;;;17.40;99.90;;;;;;5095057;28;20360;-48
2023/08/10 08:26:23;;;;;;;4.00;0.80;;;17.40;99.90;;;;;;5094735;28;20502;-48
2023/08/10 08:28:50;;;;;;;2.65;0.50;;;17.50;99.90;;;;;;5094745;28;20102;-47
2023/08/10 08:31:16;;;;;;;1.67;0.50;;;17.50;99.90;;;;;;5094703;28;20052;-47
2023/08/10 08:33:42;;;;;;;2.75;0.70;;;17.40;99.90;;;;;;5094872;28;20048;-46
2023/08/10 08:36:08;;;;;;;3.15;0.60;;;17.50;99.90;;;;;;5094483;28;20083;-47
2023/08/10 08:38:34;;;;;;;2.25;0.52;;;17.40;99.90;;;;;;5093352;28;20052;-48
2023/08/10 08:41:05;;;;;;;3.38;0.50;;;17.50;99.90;;;;;;5093340;28;20054;-48
2023/08/10 08:43:32;;;;;;;1.73;0.40;;;17.50;99.90;;;;;;5094452;28;20051;-47
2023/08/10 08:45:59;;;;;;;2.55;0.60;;;17.50;99.90;;;;;;5094522;28;20060;-47
2023/08/10 08:48:27;;;;;;;1.25;0.47;;;17.50;99.90;;;;;;5094298;28;20039;-48
2023/08/10 08:50:54;;;;;;;2.63;0.50;;;17.50;99.90;;;;;;5094360;28;20048;-48
2023/08/10 08:53:20;;;;;;;1.23;0.40;;;17.50;99.90;;;;;;5094258;28;20048;-48
2023/08/10 08:55:46;;;;;;;1.25;0.45;;;17.50;99.90;;;;;;5094165;28;20085;-47
2023/08/10 08:58:16;;;;;;;1.70;0.40;;;17.50;99.90;;;;;;5094170;28;20039;-47
2023/08/10 09:00:50;;;;;;;1.27;0.50;;;17.50;99.90;;;;;;5094170;28;20048;-46
2023/08/10 09:03:26;;;;;;;1.27;0.50;;;17.50;99.90;;;;;;5094159;28;20498;-47
2023/08/10 09:05:52;;;;;;;2.30;0.57;;;17.50;99.90;;;;;;5094216;28;20122;-47
2023/08/10 09:08:20;;;;;;;1.35;0.40;;;17.50;99.90;;;;;;5092813;28;20055;-47
2023/08/10 09:10:47;;;;;;;2.50;0.50;;;17.50;99.90;;;;;;5092878;28;20079;-47
2023/08/10 09:13:18;;;;;;;2.97;0.40;;;17.60;99.90;;;;;;5093982;28;20052;-47
2023/08/10 09:15:44;;;;;;;3.03;0.50;;;17.60;99.90;;;;;;5093141;28;20541;-47
2023/08/10 09:18:10;;;;;;;1.20;0.40;;;17.60;99.90;;;;;;5092706;28;20040;-47
2023/08/10 09:20:36;;;;;;;2.28;0.50;;;17.60;99.90;;;;;;5093534;28;20043;-46
2023/08/10 09:23:02;;;;;;;0.93;0.40;;;17.60;99.90;;;;;;5093822;28;20498;-47
2023/08/10 09:25:37;;;;;;;1.15;0.43;;;17.60;99.90;;;;;;5093813;28;20052;-47
2023/08/10 09:28:11;;;;;;;0.68;0.40;;;17.70;99.90;;;;;;5093855;28;20051;-46
2023/08/10 09:30:37;;;;;;;1.95;0.40;;;17.70;99.90;;;;;;5093746;28;20052;-47
2023/08/10 09:33:03;;;;;;;1.63;0.45;;;17.70;99.90;;;;;;5092447;28;20040;-47
2023/08/10 09:35:30;;;;;;;1.67;0.30;;;17.70;99.90;;;;;;5093493;28;20091;-49
2023/08/10 09:38:02;;;;;;;1.08;0.40;;;17.70;99.90;;;;;;5094098;28;20051;-47
2023/08/10 09:40:28;;;;;;;1.00;0.40;;;17.70;99.90;;;;;;5093627;28;20067;-47
2023/08/10 09:42:54;;;;;;;3.60;0.50;;;17.80;99.90;;;;;;5093714;28;20040;-47
2023/08/10 09:45:20;;;;;;;2.15;0.35;;;17.80;99.90;;;;;;5092485;28;20440;-46
2023/08/10 09:47:46;;;;;;;1.40;0.40;;;17.80;99.90;;;;;;5093641;28;20096;-47
2023/08/10 09:50:16;;;;;;;0.93;0.40;;;17.80;99.90;;;;;;5093350;28;20036;-46
2023/08/10 09:52:43;;;;;;;2.40;0.40;;;17.90;99.90;;;;;;5093640;28;20079;-46
2023/08/10 09:55:10;;;;;;;2.20;0.30;;;17.80;99.90;;;;;;5093620;28;20048;-47
2023/08/10 09:57:40;;;;;;;2.25;0.40;;;17.90;99.90;;;;;;5092565;28;20047;-46
2023/08/10 10:00:13;;;;;;;4.25;0.80;;;17.90;99.90;;;;;;5093416;28;20407;-47
2023/08/10 10:02:40;;;;;;;6.00;2.50;;;18.00;99.90;;;;;;5092550;28;20083;-47
2023/08/10 10:05:06;;;;;;;2.13;0.82;;;17.90;99.90;;;;;;5093487;28;20090;-47
2023/08/10 10:07:32;;;;;;;;;;;18.00;99.90;;;;;;5093897;28;20048;-47
2023/08/10 10:09:59;;;;;;;3.20;0.73;;;18.00;99.90;;;;;;5092498;28;19927;-47
2023/08/10 10:12:26;;;;;;;3.97;1.50;;;18.10;99.90;;;;;;5093568;28;20066;-47
2023/08/10 10:14:52;;;;;;;1.58;0.30;;;18.10;99.90;;;;;;5093413;28;20070;-47
2023/08/10 10:17:19;;;;;;;0.90;0.35;;;18.10;99.90;;;;;;5093396;28;20059;-47
2023/08/10 10:19:49;;;;;;;2.78;0.32;;;18.10;99.90;;;;;;5093317;28;20079;-47
2023/08/10 10:22:18;;;;;;;1.85;0.47;;;18.10;99.90;;;;;;5092415;28;20060;-47
2023/08/10 10:24:44;;;;;;;4.05;1.25;;;18.10;99.90;;;;;;5093297;28;20052;-47
2023/08/10 10:27:12;;;;;;;3.67;0.85;;;18.10;99.90;;;;;;5095024;28;20047;-47
2023/08/10 10:29:46;;;;;;;5.38;1.20;;;18.10;99.90;;;;;;5096598;28;20384;-47
2023/08/10 10:32:14;;;;;;;4.45;1.08;;;18.20;99.90;;;;;;5096828;28;20067;-47
2023/08/10 10:34:41;;;;;;;2.13;0.47;;;18.20;99.90;;;;;;5096951;28;20044;-47
2023/08/10 10:37:14;;;;;;;4.78;1.38;;;18.20;99.90;;;;;;5096887;28;20503;-47
2023/08/10 10:39:44;;;;;;;3.92;1.00;;;18.30;99.90;;;;;;5096641;28;20047;-48
2023/08/10 10:42:16;;;;;;;1.65;0.50;;;18.20;99.90;;;;;;5096770;28;20083;-48
2023/08/10 10:45:08;;;;;;;2.45;0.70;;;18.30;99.90;;;;;;5096601;28;20514;-46
2023/08/10 10:47:47;;;;;;;3.67;0.80;;;18.30;99.90;;;;;;5096906;28;20054;-48
2023/08/10 10:50:28;;;;;;;1.08;0.50;;;18.30;99.90;;;;;;5096799;28;20127;-48
2023/08/10 10:53:15;;;;;;;1.15;0.52;;;18.40;99.90;;;;;;5096678;28;20058;-48
2023/08/10 10:55:45;;;;;;;2.30;0.52;;;18.40;99.90;;;;;;5096620;28;20040;-47
2023/08/10 10:58:13;;;;;;;0.85;0.30;;;18.40;99.90;;;;;;5096498;28;20036;-48
2023/08/10 11:00:41;;;;;;;1.80;0.50;;;18.40;99.90;;;;;;5096261;28;20059;-47
2023/08/10 11:03:09;;;;;;;2.13;0.50;;;18.50;99.90;;;;;;5095372;28;20052;-47
2023/08/10 11:05:35;;;;;;;2.10;0.40;;;18.50;99.90;;;;;;5096807;28;20214;-46
2023/08/10 11:08:05;;;;;;;;;;;18.50;99.90;;;;;;5095672;28;20128;-47
2023/08/10 11:10:34;;;;;;;1.95;0.60;;;18.60;99.90;;;;;;5096302;28;19926;-48
2023/08/10 11:13:00;;;;;;;2.55;0.47;;;18.60;99.90;;;;;;5096384;28;20059;-47
2023/08/10 11:15:27;;;;;;;1.55;0.45;;;18.70;99.90;;;;;;5095948;28;20399;-49
2023/08/10 11:17:54;;;;;;;1.48;0.43;;;18.80;99.90;;;;;;5096347;28;20398;-47
2023/08/10 11:20:21;;;;;;;1.08;0.40;;;18.80;99.90;;;;;;5096512;28;20390;-47
2023/08/10 11:22:51;;;;;;;2.83;0.32;;;18.90;99.90;;;;;;5096082;28;20059;-46
2023/08/10 11:25:25;;;;;;;2.22;0.60;;;19.00;99.90;;;;;;5096137;28;20052;-48
2023/08/10 11:27:52;;;;;;;1.95;0.50;;;19.00;99.90;;;;;;5095887;28;20048;-46
2023/08/10 11:30:23;;;;;;;1.00;0.40;;;19.10;99.90;;;;;;5095501;28;20055;-51
2023/08/10 11:32:52;;;;;;;1.63;0.45;;;19.20;99.90;;;;;;5096300;28;20108;-47
2023/08/10 11:35:22;;;;;;;2.92;0.40;;;19.20;99.90;;;;;;5095798;28;20052;-50
2023/08/10 11:37:49;;;;;;;2.05;0.50;;;19.20;99.90;;;;;;5094098;28;20059;-48
2023/08/10 11:40:17;;;;;;;1.50;0.40;;;19.20;99.90;;;;;;5095350;28;20047;-51
2023/08/10 11:42:49;;;;;;;4.00;0.50;;;19.20;99.90;;;;;;5095668;28;20429;-49
2023/08/10 11:45:21;;;;;;;2.08;0.45;;;19.20;99.90;;;;;;5095610;28;20048;-49
2023/08/10 11:48:00;;;;;;;0.68;0.30;;;19.20;99.90;;;;;;5095440;28;20133;-49
2023/08/10 11:50:31;;;;;;;2.33;0.50;;;19.20;99.90;;;;;;5094501;28;20048;-49
2023/08/10 11:52:59;;;;;;;1.60;0.70;;;19.20;99.90;;;;;;5095478;28;20588;-51
2023/08/10 11:55:27;;;;;;;1.98;0.60;;;19.20;99.90;;;;;;5095394;28;20101;-49
2023/08/10 11:57:55;;;;;;;1.10;0.50;;;19.20;99.90;;;;;;5095296;28;20051;-49
2023/08/10 12:00:33;;;;;;;2.97;0.50;;;19.20;99.90;;;;;;5095389;28;20123;-50
2023/08/10 12:03:17;;;;;;;2.28;0.47;;;19.20;99.90;;;;;;5095264;28;20047;-50
2023/08/10 12:05:50;;;;;;;1.15;0.50;;;19.20;99.90;;;;;;5094839;28;20056;-49
2023/08/10 12:08:24;;;;;;;2.13;0.52;;;19.20;99.90;;;;;;5095071;28;20044;-49
2023/08/10 12:11:00;;;;;;;2.15;0.60;;;19.20;99.90;;;;;;5094158;28;20044;-48
2023/08/10 12:13:25;;;;;;;0.82;0.38;;;19.20;99.90;;;;;;5093938;28;20538;-49
2023/08/10 12:15:52;;;;;;;2.35;0.60;;;19.20;99.90;;;;;;5094920;28;20048;-48
2023/08/10 12:18:20;;;;;;;3.28;0.60;;;19.20;99.90;;;;;;5094889;28;20054;-48
2023/08/10 12:20:47;;;;;;;2.47;0.55;;;19.20;99.90;;;;;;5095006;28;20044;-51
2023/08/10 12:23:14;;;;;;;2.50;0.47;;;19.20;99.90;;;;;;5094865;28;20048;-48
2023/08/10 12:25:41;;;;;;;2.85;0.57;;;19.20;99.90;;;;;;5094702;28;20044;-47
2023/08/10 12:28:07;;;;;;;1.73;0.55;;;19.20;99.90;;;;;;5094672;28;20488;-47
2023/08/10 12:30:34;;;;;;;1.50;0.30;;;19.20;99.90;;;;;;5093115;28;20067;-47
2023/08/10 12:33:01;;;;;;;1.50;0.50;;;19.20;99.90;;;;;;5093528;28;20055;-48
2023/08/10 12:35:26;;;;;;;2.58;0.60;;;19.30;99.90;;;;;;5094963;28;20406;-47
2023/08/10 12:37:52;;;;;;;3.30;0.47;;;19.20;99.90;;;;;;5094890;28;20102;-47
2023/08/10 12:40:18;;;;;;;1.20;0.50;;;19.20;99.90;;;;;;5093398;28;20051;-47
2023/08/10 12:42:44;;;;;;;3.10;0.60;;;19.20;99.90;;;;;;5094469;28;20040;-47
2023/08/10 12:45:11;;;;;;;5.00;0.80;;;19.10;99.90;;;;;;5094444;28;20052;-48
2023/08/10 12:47:41;;;;;;;2.78;0.57;;;19.10;99.90;;;;;;5093265;28;20544;-48